Aérodrome :
LOGIN :

S'inscrire | Disclaimer

   EN    FR    IT 

 










Légende :    VFR   VFR Marginal   IFR   IFR Intensif   IFR Très Intensif
Visi : 
Plafond : 
>= 8 km
>= 3000ft
5 à 8 km
1000 à 3000 ft
1500m à 5 km
500 à 1000 ft
800 à 1500m
200 à 500 ft
< 800m
< 200 ft
Symboles :   Orages  Brouillard  Fortes neiges  Fortes précipitations  Vent > 20 kt
SIGMETs :   Divers  Orages  Givrage  Turbulence  Onde Orograph.  Cendres Volcan.






- Altitude de l'aérodrome : 359 ft
- Code IATA : DEB


LHDC - Debrecen

DERNIER METAR :
  • 180045Z AUTO 08003KT 8000 NSC 11/08 Q1018

METARs EXPIRÉS :
  • 180015Z AUTO 09003KT 070V130 8000 NSC 12/09 Q1018
  • 172345Z AUTO 02002KT 9000 NSC 13/09 Q1018
  • 172315Z AUTO VRB01KT 9000 NSC 13/09 Q1018
  • 172245Z AUTO 03002KT 9000 NSC 13/08 Q1018
  • 172215Z AUTO 06004KT 9000 NSC 13/08 Q1018

TAF TAF LHDC
Valide du 17 à 21h jusqu'au 18 à 06h UTC


172015Z 1721/1806 VRB02KT 8000 NSC
BECMG 1800/1803 5000 BR
PROB40
TEMPO 1803/1806 1500 BR



MET'MAP, la Météo Aéronautique d'un coup d'oeil ! - Copyright ORBIFLY Décembre 2007 - Disclaimer

ORBIFLY MET'MAP TEAM :

Programmation & Développement : Alexandra Zaïnal
Conception & Développement : Baudouin d'Aumeries
Co-Programmation & Développement : Marc-Olivier Méhu
Soutien technique & logistique : Manuel Goepfert

Contact : metmap@orbifly.com




SOURCES & CREDITS :

   NOAA